createdAt,value
2019-04-23T00:01:03.017Z,6.07
2019-04-23T00:03:19.896Z,6.00
2019-04-23T00:08:41.995Z,7.63
2019-04-23T00:11:25.900Z,5.57
2019-04-23T00:14:03.162Z,4.63
2019-04-23T00:16:30.248Z,7.30
2019-04-23T00:18:56.339Z,5.33
2019-04-23T00:21:46.003Z,6.20
2019-04-23T00:24:56.782Z,6.23
2019-04-23T00:27:24.050Z,8.60
2019-04-23T00:32:21.780Z,6.33
2019-04-23T00:34:55.722Z,9.83
2019-04-23T00:37:28.389Z,6.00
2019-04-23T00:39:53.243Z,4.77
2019-04-23T00:42:41.627Z,7.53
2019-04-23T00:44:57.443Z,5.23
2019-04-23T00:47:36.773Z,6.87
2019-04-23T00:50:07.735Z,3.43
2019-04-23T00:52:35.355Z,4.83
2019-04-23T00:55:15.928Z,7.87
2019-04-23T00:57:59.838Z,6.20
2019-04-23T01:00:52.472Z,5.03
2019-04-23T01:07:51.537Z,5.07
2019-04-23T01:10:40.725Z,5.50
2019-04-23T01:13:08.636Z,5.70
2019-04-23T01:15:52.341Z,4.00
2019-04-23T01:20:54.652Z,6.60
2019-04-23T01:23:54.829Z,6.77
2019-04-23T01:26:42.141Z,11.53
2019-04-23T01:29:20.190Z,5.60
2019-04-23T01:31:51.996Z,9.20
2019-04-23T01:34:31.903Z,4.27
2019-04-23T01:36:54.180Z,5.60
2019-04-23T01:39:27.819Z,4.40
2019-04-23T01:42:14.519Z,7.63
2019-04-23T01:44:42.477Z,4.77
2019-04-23T01:47:12.440Z,3.83
2019-04-23T01:49:44.969Z,6.87
2019-04-23T01:52:14.516Z,10.40
2019-04-23T01:54:45.540Z,6.73
2019-04-23T01:57:22.890Z,8.53
2019-04-23T02:00:17.338Z,4.67
2019-04-23T02:02:45.720Z,6.27
2019-04-23T02:05:27.316Z,5.93
2019-04-23T02:08:06.058Z,6.77
2019-04-23T02:10:58.798Z,8.90
2019-04-23T02:16:42.613Z,5.43
2019-04-23T02:19:23.712Z,5.80
2019-04-23T02:22:09.817Z,5.13
2019-04-23T02:27:24.904Z,6.10
2019-04-23T02:30:05.964Z,7.60
2019-04-23T02:32:42.370Z,7.43
2019-04-23T02:35:32.882Z,4.93
2019-04-23T02:41:34.678Z,4.80
2019-04-23T02:44:13.166Z,5.78
2019-04-23T02:46:31.910Z,4.87
2019-04-23T02:51:56.255Z,7.77
2019-04-23T02:54:37.580Z,7.20
2019-04-23T03:00:09.935Z,8.63
2019-04-23T03:02:37.037Z,5.97
2019-04-23T03:04:57.734Z,5.70
2019-04-23T03:07:41.133Z,8.17
2019-04-23T03:10:08.293Z,5.17
2019-04-23T03:13:09.217Z,6.03
2019-04-23T03:15:21.419Z,8.60
2019-04-23T03:18:35.044Z,5.00
2019-04-23T03:21:18.450Z,5.87
2019-04-23T03:23:47.137Z,8.87
2019-04-23T03:26:32.680Z,7.20
2019-04-23T03:28:55.751Z,9.40
2019-04-23T03:34:52.164Z,8.20
2019-04-23T03:37:00.077Z,6.47
2019-04-23T03:38:54.346Z,14.00
2019-04-23T03:49:01.232Z,9.00
2019-04-23T03:54:28.417Z,6.43
2019-04-23T03:56:52.645Z,7.30
2019-04-23T03:59:22.742Z,8.50
2019-04-23T04:02:20.865Z,7.97
2019-04-23T04:09:49.639Z,6.70
2019-04-23T04:12:29.537Z,8.47
2019-04-23T04:14:56.692Z,8.53
2019-04-23T04:17:19.723Z,14.07
2019-04-23T04:20:02.382Z,11.37
2019-04-23T04:22:44.037Z,15.67
2019-04-23T04:25:10.092Z,11.87
2019-04-23T04:27:47.875Z,12.33
2019-04-23T04:32:47.031Z,8.63
2019-04-23T04:43:06.761Z,7.63
2019-04-23T04:48:37.920Z,8.63
2019-04-23T04:51:08.452Z,9.83
2019-04-23T05:03:29.261Z,12.20
2019-04-23T05:08:52.924Z,13.97
2019-04-23T05:16:40.443Z,8.37
2019-04-23T05:21:46.766Z,8.27
2019-04-23T05:24:11.529Z,9.20
2019-04-23T05:26:57.965Z,9.00
2019-04-23T05:29:11.197Z,7.57
2019-04-23T05:31:51.749Z,6.37
2019-04-23T05:34:17.535Z,10.73
2019-04-23T05:36:55.761Z,8.87
2019-04-23T05:39:30.657Z,6.47
2019-04-23T05:42:04.209Z,8.43
2019-04-23T05:47:16.020Z,7.63
2019-04-23T05:49:39.485Z,11.53
2019-04-23T05:52:29.871Z,9.67
2019-04-23T05:54:52.446Z,7.53
2019-04-23T05:57:14.345Z,7.07
2019-04-23T05:59:54.743Z,7.23
2019-04-23T06:02:26.527Z,10.17
2019-04-23T06:05:02.134Z,10.63
2019-04-23T06:12:31.937Z,14.93
2019-04-23T06:15:05.352Z,7.90
2019-04-23T06:17:56.159Z,7.90
2019-04-23T06:20:18.204Z,13.50
2019-04-23T06:22:54.043Z,10.13
2019-04-23T06:25:40.796Z,12.40
2019-04-23T06:27:56.006Z,8.40
2019-04-23T06:30:49.016Z,6.87
2019-04-23T06:33:11.189Z,9.30
2019-04-23T06:35:47.063Z,10.47
2019-04-23T06:38:39.162Z,11.60
2019-04-23T06:40:51.121Z,9.73
2019-04-23T06:43:30.301Z,9.27
2019-04-23T06:45:49.223Z,10.30
2019-04-23T06:50:56.179Z,8.87
2019-04-23T06:53:29.187Z,8.70
2019-04-23T06:56:35.104Z,10.90
2019-04-23T06:59:02.451Z,10.53
2019-04-23T07:02:04.272Z,9.97
2019-04-23T07:09:57.953Z,11.23
2019-04-23T07:12:38.597Z,11.33
2019-04-23T07:15:33.454Z,8.97
2019-04-23T07:18:03.859Z,11.00
2019-04-23T07:20:40.358Z,11.83
2019-04-23T07:23:17.001Z,9.60
2019-04-23T07:25:42.488Z,13.30
2019-04-23T07:28:47.540Z,17.40
2019-04-23T07:31:29.899Z,11.50
2019-04-23T07:42:09.159Z,8.20
2019-04-23T07:44:56.590Z,8.47
2019-04-23T07:48:00.238Z,9.23
2019-04-23T07:50:38.186Z,15.03
2019-04-23T07:52:59.051Z,14.20
2019-04-23T07:57:58.313Z,9.43
2019-04-23T08:00:36.659Z,13.50
2019-04-23T08:03:08.710Z,9.37
2019-04-23T08:08:00.230Z,12.00
2019-04-23T08:10:35.811Z,12.23
2019-04-23T08:15:42.958Z,12.33
2019-04-23T08:20:55.604Z,10.77
2019-04-23T08:23:49.120Z,11.90
2019-04-23T08:26:56.750Z,16.17
2019-04-23T08:29:24.872Z,10.70
2019-04-23T08:32:11.085Z,10.13
2019-04-23T08:34:57.797Z,11.87
2019-04-23T08:37:15.363Z,11.60
2019-04-23T08:40:09.750Z,12.00
2019-04-23T08:42:46.737Z,15.47
2019-04-23T08:45:22.627Z,13.70
2019-04-23T08:48:32.831Z,11.10
2019-04-23T08:50:50.228Z,14.47
2019-04-23T08:53:31.736Z,10.47
2019-04-23T09:01:03.826Z,11.27
2019-04-23T09:06:05.583Z,11.30
2019-04-23T09:08:37.385Z,11.07
2019-04-23T09:11:30.779Z,10.53
2019-04-23T09:14:00.911Z,13.67
2019-04-23T09:16:31.318Z,10.53
2019-04-23T09:19:02.621Z,16.70
2019-04-23T09:21:27.504Z,16.40
2019-04-23T09:24:03.844Z,17.77
2019-04-23T09:26:51.761Z,13.50
2019-04-23T09:29:19.096Z,14.87
2019-04-23T09:37:42.253Z,18.27
2019-04-23T09:40:51.150Z,12.40
2019-04-23T09:46:17.554Z,17.37
2019-04-23T09:49:00.095Z,13.17
2019-04-23T09:51:25.537Z,16.83
2019-04-23T09:53:57.741Z,15.73
2019-04-23T09:56:37.592Z,17.63
2019-04-23T09:59:28.635Z,12.50
2019-04-23T10:01:48.329Z,15.53
2019-04-23T10:04:22.161Z,19.43
2019-04-23T10:06:55.309Z,11.47
2019-04-23T10:09:14.560Z,16.90
2019-04-23T10:11:47.219Z,14.53
2019-04-23T10:14:16.795Z,15.23
2019-04-23T10:16:49.335Z,14.80
2019-04-23T10:19:19.744Z,16.17
2019-04-23T10:21:49.335Z,17.57
2019-04-23T10:24:19.157Z,15.73
2019-04-23T10:26:50.426Z,13.80
2019-04-23T10:29:25.598Z,15.63
2019-04-23T10:32:07.465Z,11.63
2019-04-23T10:34:57.793Z,16.93
2019-04-23T10:37:32.053Z,15.80
2019-04-23T10:39:56.165Z,19.03
2019-04-23T10:42:22.735Z,16.30
2019-04-23T10:45:30.294Z,22.87
2019-04-23T10:48:35.370Z,18.73
2019-04-23T10:51:17.127Z,18.23
2019-04-23T10:53:56.274Z,17.53
2019-04-23T10:56:36.212Z,14.70
2019-04-23T10:59:04.862Z,19.23
2019-04-23T11:01:39.075Z,17.43
2019-04-23T11:04:21.731Z,15.63
2019-04-23T11:06:50.343Z,18.17
2019-04-23T11:09:52.880Z,19.47
2019-04-23T11:12:14.543Z,16.37
2019-04-23T11:14:49.958Z,20.62
2019-04-23T11:17:31.900Z,19.80
2019-04-23T11:20:10.817Z,16.83
2019-04-23T11:22:42.024Z,27.43
2019-04-23T11:25:15.443Z,14.87
2019-04-23T11:28:20.436Z,19.47
2019-04-23T11:30:31.434Z,16.17
2019-04-23T11:33:00.784Z,18.10
2019-04-23T11:35:40.024Z,14.23
2019-04-23T11:38:34.949Z,24.23
2019-04-23T11:40:37.154Z,17.20
2019-04-23T11:44:52.208Z,18.77
2019-04-23T11:46:08.562Z,23.13
2019-04-23T11:53:41.038Z,17.03
2019-04-23T11:56:18.936Z,19.37
2019-04-23T11:58:42.758Z,15.53
2019-04-23T12:04:28.801Z,17.33
2019-04-23T12:07:00.098Z,19.73
2019-04-23T12:09:53.412Z,21.60
2019-04-23T12:14:47.169Z,16.50
2019-04-23T12:17:46.742Z,19.07
2019-04-23T12:20:21.205Z,18.13
2019-04-23T12:25:27.594Z,20.77
2019-04-23T12:27:46.969Z,21.90
2019-04-23T12:30:39.612Z,17.93
2019-04-23T12:35:33.973Z,14.03
2019-04-23T12:38:16.462Z,16.30
2019-04-23T12:40:44.293Z,22.70
2019-04-23T12:45:46.933Z,25.67
2019-04-23T12:48:44.052Z,18.13
2019-04-23T12:53:34.238Z,16.03
2019-04-23T12:56:12.895Z,20.93
2019-04-23T12:58:33.817Z,17.57
2019-04-23T13:01:18.671Z,24.07
2019-04-23T13:03:46.006Z,17.83
2019-04-23T13:06:20.434Z,20.67
2019-04-23T13:09:02.799Z,17.73
2019-04-23T13:14:35.004Z,28.27
2019-04-23T13:17:11.610Z,15.97
2019-04-23T13:19:51.524Z,21.73
2019-04-23T13:22:23.754Z,16.63
2019-04-23T13:25:32.962Z,18.03
2019-04-23T13:28:08.391Z,20.63
2019-04-23T13:31:04.452Z,18.90
2019-04-23T13:38:57.201Z,17.87
2019-04-23T13:41:34.830Z,19.00
2019-04-23T13:44:55.861Z,18.40
2019-04-23T13:47:59.668Z,19.10
2019-04-23T13:51:19.819Z,17.73
2019-04-23T13:55:02.880Z,20.73
2019-04-23T14:00:44.928Z,20.30
2019-04-23T14:03:40.672Z,22.43
2019-04-23T14:09:20.083Z,18.27
2019-04-23T14:12:31.960Z,18.83
2019-04-23T14:15:24.183Z,19.50
2019-04-23T14:24:45.237Z,17.57
2019-04-23T14:27:24.506Z,21.90
2019-04-23T14:33:37.403Z,18.43
2019-04-23T14:36:52.746Z,19.67
2019-04-23T14:39:32.317Z,21.87
2019-04-23T14:42:44.524Z,23.80
2019-04-23T14:45:19.111Z,18.43
2019-04-23T14:48:02.813Z,31.93
2019-04-23T14:50:48.762Z,16.17
2019-04-23T14:56:20.176Z,19.73
2019-04-23T14:59:16.405Z,17.67
2019-04-23T15:01:55.127Z,17.77
2019-04-23T15:04:27.329Z,17.43
2019-04-23T15:08:18.786Z,24.43
2019-04-23T15:13:41.314Z,19.20
2019-04-23T15:16:20.497Z,18.43
2019-04-23T15:19:31.620Z,19.07
2019-04-23T15:22:20.397Z,27.03
2019-04-23T15:28:14.518Z,25.33
2019-04-23T15:34:13.817Z,14.93
2019-04-23T15:37:00.752Z,17.73
2019-04-23T15:45:19.407Z,18.73
2019-04-23T15:48:12.010Z,21.00
2019-04-23T15:57:42.056Z,15.10
2019-04-23T16:00:00.038Z,20.70
2019-04-23T16:02:06.222Z,19.03
2019-04-23T16:04:35.999Z,11.37
2019-04-23T16:07:08.012Z,12.13
2019-04-23T16:10:11.016Z,14.23
2019-04-23T16:12:35.970Z,13.63
2019-04-23T16:15:07.839Z,16.10
2019-04-23T16:18:01.486Z,22.73
2019-04-23T16:20:31.469Z,13.57
2019-04-23T16:23:05.705Z,16.47
2019-04-23T16:25:49.808Z,13.20
2019-04-23T16:31:34.573Z,16.30
2019-04-23T16:36:32.494Z,18.93
2019-04-23T16:39:06.215Z,13.37
2019-04-23T16:41:52.130Z,15.67
2019-04-23T16:44:24.215Z,10.70
2019-04-23T16:46:52.022Z,10.90
2019-04-23T16:51:45.540Z,15.07
2019-04-23T16:54:26.723Z,11.70
2019-04-23T16:59:24.223Z,8.80
2019-04-23T17:04:34.554Z,13.87
2019-04-23T17:07:03.710Z,14.20
2019-04-23T17:09:42.581Z,11.73
2019-04-23T17:12:13.725Z,28.93
2019-04-23T17:14:48.234Z,12.20
2019-04-23T17:17:11.705Z,14.37
2019-04-23T17:20:03.009Z,12.58
2019-04-23T17:22:32.590Z,14.27
2019-04-23T17:25:15.794Z,11.70
2019-04-23T17:27:48.925Z,17.77
2019-04-23T17:30:27.909Z,16.70
2019-04-23T17:33:13.877Z,11.00
2019-04-23T17:38:56.988Z,18.40
2019-04-23T17:41:43.998Z,13.67
2019-04-23T17:44:23.602Z,10.67
2019-04-23T17:47:08.735Z,13.57
2019-04-23T17:49:59.605Z,9.77
2019-04-23T17:55:54.873Z,11.33
2019-04-23T17:58:19.899Z,12.30
2019-04-23T18:03:23.789Z,8.47
2019-04-23T18:06:08.411Z,15.73
2019-04-23T18:08:41.482Z,9.40
2019-04-23T18:11:05.883Z,11.30
2019-04-23T18:13:27.726Z,10.53
2019-04-23T18:21:29.148Z,14.40
2019-04-23T18:24:16.500Z,9.07
2019-04-23T18:27:06.694Z,11.50
2019-04-23T18:30:00.765Z,9.37
2019-04-23T18:32:22.153Z,10.77
2019-04-23T18:37:29.819Z,12.43
2019-04-23T18:40:00.361Z,20.43
2019-04-23T18:45:03.482Z,9.23
2019-04-23T18:47:48.976Z,11.47
2019-04-23T18:50:19.631Z,15.37
2019-04-23T18:52:50.315Z,13.67
2019-04-23T18:55:14.591Z,16.40
2019-04-23T18:57:45.787Z,13.77
2019-04-23T19:00:17.242Z,16.30
2019-04-23T19:03:30.330Z,21.07
2019-04-23T19:06:31.963Z,16.83
2019-04-23T19:09:01.378Z,20.07
2019-04-23T19:14:30.799Z,25.00
2019-04-23T19:17:09.032Z,25.77
2019-04-23T19:19:28.600Z,22.90
2019-04-23T19:22:14.553Z,17.77
2019-04-23T19:25:01.964Z,16.53
2019-04-23T19:29:39.445Z,16.20
2019-04-23T19:32:06.221Z,17.60
2019-04-23T19:34:45.403Z,18.03
2019-04-23T19:37:02.412Z,16.83
2019-04-23T19:39:40.100Z,15.27
2019-04-23T19:42:21.089Z,17.57
2019-04-23T19:52:18.666Z,24.07
2019-04-23T19:54:55.036Z,15.03
2019-04-23T19:57:19.463Z,16.23
2019-04-23T19:59:51.064Z,16.17
2019-04-23T20:02:32.207Z,16.10
2019-04-23T20:05:05.579Z,18.87
2019-04-23T20:07:32.932Z,17.53
2019-04-23T20:09:51.602Z,16.67
2019-04-23T20:12:33.418Z,15.90
2019-04-23T20:14:56.536Z,21.30
2019-04-23T20:19:58.406Z,17.40
2019-04-23T20:22:41.840Z,19.60
2019-04-23T20:25:31.450Z,12.93
2019-04-23T20:32:15.345Z,21.17
2019-04-23T20:35:38.381Z,22.83
2019-04-23T20:38:59.400Z,13.00
2019-04-23T20:40:53.965Z,21.40
2019-04-23T20:43:14.751Z,14.70
2019-04-23T20:45:55.997Z,21.47
2019-04-23T20:48:25.270Z,16.33
2019-04-23T20:53:28.380Z,21.60
2019-04-23T20:58:47.549Z,17.37
2019-04-23T21:03:52.032Z,13.90
2019-04-23T21:06:28.288Z,20.37
2019-04-23T21:09:10.092Z,14.23
2019-04-23T21:11:24.173Z,15.17
2019-04-23T21:14:03.309Z,20.93
2019-04-23T21:16:32.157Z,19.10
2019-04-23T21:18:55.045Z,11.60
2019-04-23T21:21:33.564Z,20.00
2019-04-23T21:26:40.293Z,16.67
2019-04-23T21:29:00.566Z,21.07
2019-04-23T21:31:42.791Z,14.37
2019-04-23T21:34:26.911Z,18.43
2019-04-23T21:36:57.793Z,16.53
2019-04-23T21:39:53.920Z,15.07
2019-04-23T21:42:21.122Z,17.70
2019-04-23T21:47:17.154Z,13.97
2019-04-23T21:50:03.081Z,14.70
2019-04-23T21:52:28.514Z,26.23
2019-04-23T21:54:58.734Z,13.50
2019-04-23T21:57:41.193Z,16.10
2019-04-23T22:02:38.269Z,17.27
2019-04-23T22:05:09.315Z,14.67
2019-04-23T22:07:44.191Z,15.33
2019-04-23T22:12:48.085Z,14.50
2019-04-23T22:15:07.287Z,23.63
2019-04-23T22:17:44.795Z,16.53
2019-04-23T22:23:01.482Z,23.30
2019-04-23T22:25:18.069Z,19.07
2019-04-23T22:30:21.405Z,20.90
2019-04-23T22:35:24.282Z,18.03
2019-04-23T22:38:07.478Z,17.57
2019-04-23T22:40:31.398Z,22.93
2019-04-23T22:45:52.427Z,18.53
2019-04-23T22:48:04.249Z,17.93
2019-04-23T22:50:39.743Z,21.30
2019-04-23T22:53:08.004Z,19.47
2019-04-23T22:55:49.424Z,19.87
2019-04-23T22:58:16.031Z,21.33
2019-04-23T23:01:05.413Z,24.77
2019-04-23T23:03:33.355Z,20.57
2019-04-23T23:06:10.471Z,21.03
2019-04-23T23:08:52.313Z,24.13
2019-04-23T23:11:05.772Z,26.50
2019-04-23T23:13:52.230Z,23.93
2019-04-23T23:16:06.819Z,19.40
2019-04-23T23:18:43.938Z,20.50
2019-04-23T23:21:11.888Z,20.47
2019-04-23T23:31:19.855Z,19.63
2019-04-23T23:33:47.205Z,21.63
2019-04-23T23:36:20.145Z,22.17
2019-04-23T23:38:58.651Z,19.03
2019-04-23T23:44:20.798Z,19.48
2019-04-23T23:46:35.466Z,16.97
2019-04-23T23:49:08.494Z,19.27
2019-04-23T23:51:40.219Z,21.60
2019-04-23T23:54:10.317Z,19.33
2019-04-23T23:56:47.799Z,18.77
2019-04-23T23:59:12.862Z,18.70
